Time;durP1;ratioP1;P1;durP2;ratioP2;P2;SDS_P1;SDS_P2;PMS_P1;PMS_P2;Temp;Humidity;BMP_temperature;BMP_pressure;BME280_temperature;BME280_humidity;BME280_pressure;Samples;Min_cycle;Max_cycle;Signal;HPM_P1;HPM_P2
2023/09/08 00:02:19;;;;;;;7.93;6.83;;;;;;;17.58;80.82;101244.16;5051426;28;20235;-82
2023/09/08 00:04:46;;;;;;;8.73;7.83;;;;;;;17.60;81.27;101241.34;5050786;28;20218;-80
2023/09/08 00:07:12;;;;;;;8.67;7.60;;;;;;;17.59;81.52;101245.00;5051580;28;20206;-81
2023/09/08 00:09:40;;;;;;;8.10;7.30;;;;;;;17.58;81.71;101244.16;5051961;28;20215;-83
2023/09/08 00:12:07;;;;;;;9.20;7.93;;;;;;;17.57;81.95;101236.19;5051407;28;20253;-81
2023/09/08 00:14:33;;;;;;;7.87;6.83;;;;;;;17.56;81.96;101239.88;5051721;28;20660;-83
2023/09/08 00:17:00;;;;;;;8.17;7.37;;;;;;;17.54;82.04;101242.72;5051655;28;20699;-83
2023/09/08 00:19:26;;;;;;;8.23;7.43;;;;;;;17.55;81.67;101241.75;5051407;28;20222;-82
2023/09/08 00:21:53;;;;;;;7.50;6.80;;;;;;;17.48;79.79;101240.53;5051100;28;20230;-81
2023/09/08 00:24:19;;;;;;;6.90;6.20;;;;;;;17.37;79.11;101237.03;5051000;28;20215;-81
2023/09/08 00:26:47;;;;;;;8.73;6.87;;;;;;;17.28;79.25;101244.00;5050358;28;20655;-82
2023/09/08 00:29:14;;;;;;;7.50;6.50;;;;;;;17.21;79.61;101242.78;5053255;28;20570;-82
2023/09/08 00:31:40;;;;;;;8.03;7.23;;;;;;;17.18;80.21;101235.84;5043188;28;20730;-81
2023/09/08 00:34:07;;;;;;;8.20;7.40;;;;;;;17.17;81.00;101236.81;5034387;28;20230;-82
2023/09/08 00:36:34;;;;;;;8.13;7.30;;;;;;;17.17;81.39;101234.13;5034756;28;20276;-82
2023/09/08 00:39:00;;;;;;;7.73;6.93;;;;;;;17.18;82.01;101241.22;5034813;28;20218;-81
2023/09/08 00:41:27;;;;;;;8.50;7.70;;;;;;;17.19;82.50;101240.25;5033714;28;20229;-80
2023/09/08 00:43:54;;;;;;;7.43;6.73;;;;;;;17.19;81.72;101234.00;5034084;28;20214;-80
2023/09/08 00:46:21;;;;;;;8.03;7.23;;;;;;;17.12;81.20;101238.16;5033491;28;20203;-80
2023/09/08 00:48:47;;;;;;;7.77;6.97;;;;;;;17.06;81.01;101228.75;5034262;28;20210;-81
2023/09/08 00:51:14;;;;;;;8.17;7.30;;;;;;;17.02;81.12;101237.22;5034115;28;20209;-82
2023/09/08 00:53:41;;;;;;;7.50;6.80;;;;;;;16.98;81.34;101233.91;5034046;28;20689;-80
2023/09/08 00:56:10;;;;;;;8.10;7.30;;;;;;;16.94;81.29;101233.28;5033855;28;20233;-82
2023/09/08 00:58:37;;;;;;;7.40;6.63;;;;;;;16.91;81.16;101235.38;5033706;28;20213;-81
2023/09/08 01:01:06;;;;;;;6.90;6.20;;;;;;;16.88;80.89;101232.91;5033559;28;20210;-81
2023/09/08 01:03:33;;;;;;;7.77;7.00;;;;;;;16.83;80.86;101238.69;5034370;28;20257;-82
2023/09/08 01:06:00;;;;;;;7.23;6.53;;;;;;;16.76;80.56;101240.16;5033838;28;20209;-81
2023/09/08 01:08:27;;;;;;;7.80;7.00;;;;;;;16.69;80.59;101238.91;5033416;28;20598;-82
2023/09/08 01:10:53;;;;;;;8.13;7.33;;;;;;;16.63;80.77;101231.34;5033179;28;20233;-80
2023/09/08 01:13:20;;;;;;;7.97;7.17;;;;;;;16.58;81.37;101230.81;5033391;28;20238;-81
2023/09/08 01:15:46;;;;;;;8.07;7.27;;;;;;;16.55;81.88;101228.38;5033677;28;20222;-80
2023/09/08 01:18:14;;;;;;;8.23;7.27;;;;;;;16.54;81.95;101237.41;5034211;28;20217;-81
2023/09/08 01:21:06;;;;;;;11.10;7.77;;;;;;;16.47;82.01;101234.38;5032834;28;20232;-80
2023/09/08 01:23:44;;;;;;;8.97;8.07;;;;;;;16.41;82.45;101234.00;5033343;28;20192;-82
2023/09/08 01:26:17;;;;;;;8.83;7.97;;;;;;;16.36;83.61;101225.41;5033293;28;20563;-80
2023/09/08 01:28:46;;;;;;;8.50;7.60;;;;;;;16.30;84.42;101227.59;5033371;28;20198;-82
2023/09/08 01:31:13;;;;;;;8.90;8.10;;;;;;;16.26;84.46;101222.59;5033926;28;20220;-82
2023/09/08 01:33:41;;;;;;;9.53;8.33;;;;;;;16.21;84.80;101227.47;5033351;28;20226;-82
2023/09/08 01:36:08;;;;;;;9.23;8.00;;;;;;;16.17;85.13;101221.47;5032624;28;20232;-81
2023/09/08 01:38:35;;;;;;;7.97;7.10;;;;;;;16.13;85.46;101222.69;5034029;28;20288;-81
2023/09/08 01:41:02;;;;;;;7.57;6.77;;;;;;;16.12;85.25;101222.84;5032854;28;20971;-81
2023/09/08 01:43:30;;;;;;;8.27;7.40;;;;;;;16.07;84.71;101223.19;5034510;28;20207;-82
2023/09/08 01:45:56;;;;;;;7.20;6.50;;;;;;;16.02;85.07;101224.50;5033645;28;20215;-82
2023/09/08 01:48:23;;;;;;;7.10;6.30;;;;;;;15.98;85.36;101231.94;5033151;28;20213;-81
2023/09/08 01:50:49;;;;;;;7.77;6.23;;;;;;;15.95;85.33;101224.97;5033555;28;20613;-81
2023/09/08 01:53:15;;;;;;;7.40;5.80;;;;;;;15.94;85.08;101225.94;5033385;28;20728;-80
2023/09/08 01:55:42;;;;;;;6.93;6.23;;;;;;;15.91;85.15;101222.66;5033707;28;20652;-80
2023/09/08 01:58:08;;;;;;;7.03;6.33;;;;;;;15.90;85.62;101223.63;5034828;28;20305;-82
2023/09/08 02:00:36;;;;;;;9.53;6.40;;;;;;;15.88;85.27;101213.00;5033223;28;20210;-83
2023/09/08 02:03:03;;;;;;;6.70;6.10;;;;;;;15.87;85.32;101215.78;5033108;28;20230;-83
2023/09/08 02:05:30;;;;;;;8.73;6.30;;;;;;;15.84;85.27;101211.50;5033335;28;20206;-81
2023/09/08 02:07:57;;;;;;;6.67;6.03;;;;;;;15.82;85.67;101221.50;5033183;28;20208;-81
2023/09/08 02:10:23;;;;;;;6.80;6.07;;;;;;;15.81;86.30;101216.25;5033906;28;20203;-82
2023/09/08 02:12:50;;;;;;;8.93;5.83;;;;;;;15.78;85.78;101220.03;5033592;28;20234;-81
2023/09/08 02:15:17;;;;;;;6.80;6.07;;;;;;;15.75;85.82;101214.91;5033491;28;20552;-81
2023/09/08 02:17:45;;;;;;;7.60;6.50;;;;;;;15.74;86.20;101215.88;5033401;28;20773;-82
2023/09/08 02:20:12;;;;;;;8.07;7.27;;;;;;;15.73;86.59;101211.47;5033432;28;20242;-81
2023/09/08 02:22:38;;;;;;;7.20;6.50;;;;;;;15.71;86.82;101218.78;5033326;28;20233;-80
2023/09/08 02:25:06;;;;;;;6.20;5.60;;;;;;;15.68;85.59;101215.47;5033069;28;20202;-81
2023/09/08 02:27:32;;;;;;;5.97;5.40;;;;;;;15.61;84.36;101221.28;5032360;28;20208;-80
2023/09/08 02:29:59;;;;;;;6.70;5.73;;;;;;;15.51;83.46;101220.25;5031666;28;20230;-81
2023/09/08 02:32:25;;;;;;;6.20;5.70;;;;;;;15.42;82.79;101217.38;5031725;28;20586;-82
2023/09/08 02:34:53;;;;;;;6.97;6.27;;;;;;;15.36;83.39;101217.84;5031662;28;20638;-79
2023/09/08 02:37:19;;;;;;;6.80;6.10;;;;;;;15.31;83.90;101217.34;5031892;28;20585;-82
2023/09/08 02:39:46;;;;;;;8.10;6.27;;;;;;;15.25;84.52;101213.28;5032979;28;20216;-79
2023/09/08 02:42:12;;;;;;;8.00;6.33;;;;;;;15.18;85.54;101207.53;5034040;28;20595;-81
2023/09/08 02:44:39;;;;;;;6.70;6.10;;;;;;;15.15;85.88;101215.78;5033272;28;20207;-81
2023/09/08 02:47:06;;;;;;;7.93;7.23;;;;;;;15.11;86.46;101211.63;5032178;28;20209;-83
2023/09/08 02:49:32;;;;;;;7.30;6.37;;;;;;;15.09;86.77;101210.88;5032556;28;20233;-81
2023/09/08 02:52:00;;;;;;;7.40;6.37;;;;;;;15.06;86.82;101213.75;5032106;28;20234;-80
2023/09/08 02:54:27;;;;;;;7.43;6.33;;;;;;;15.04;87.32;101218.41;5032783;28;20206;-82
2023/09/08 02:56:53;;;;;;;7.83;6.90;;;;;;;15.02;87.36;101216.81;5032963;28;20586;-81
2023/09/08 02:59:20;;;;;;;7.63;6.63;;;;;;;15.01;87.74;101215.09;5032682;28;20210;-83
2023/09/08 03:01:47;;;;;;;7.23;6.53;;;;;;;15.01;87.85;101212.41;5032793;28;20237;-80
2023/09/08 03:04:13;;;;;;;7.03;6.33;;;;;;;15.01;87.77;101218.63;5032108;28;20296;-81
2023/09/08 03:06:40;;;;;;;7.60;6.10;;;;;;;14.94;86.76;101218.22;5032445;28;20721;-80
2023/09/08 03:09:08;;;;;;;6.57;5.83;;;;;;;14.91;86.85;101221.09;5032017;28;20219;-81
2023/09/08 03:11:37;;;;;;;6.83;6.10;;;;;;;14.85;86.54;101216.22;5031962;28;20241;-80
2023/09/08 03:14:03;;;;;;;7.10;6.40;;;;;;;14.78;86.11;101212.25;5031631;28;20202;-80
2023/09/08 03:16:30;;;;;;;6.77;6.10;;;;;;;14.75;86.41;101203.56;5031106;28;20598;-80
2023/09/08 03:18:56;;;;;;;7.03;6.27;;;;;;;14.73;86.92;101216.22;5030806;28;20218;-82
2023/09/08 03:21:22;;;;;;;8.90;6.57;;;;;;;14.71;86.90;101212.78;5031412;28;20222;-81
2023/09/08 03:23:49;;;;;;;10.03;7.17;;;;;;;14.68;87.65;101204.97;5031413;28;20209;-82
2023/09/08 03:26:17;;;;;;;7.30;6.50;;;;;;;14.61;87.64;101201.88;5031918;28;20215;-80
2023/09/08 03:28:43;;;;;;;7.40;6.60;;;;;;;14.55;87.95;101199.63;5032241;28;20207;-80
2023/09/08 03:31:10;;;;;;;7.27;6.17;;;;;;;14.51;88.39;101193.59;5031306;28;20255;-81
2023/09/08 03:33:37;;;;;;;8.17;7.00;;;;;;;14.47;89.60;101200.19;5031259;28;20576;-80
2023/09/08 03:36:04;;;;;;;7.93;7.13;;;;;;;14.47;90.24;101196.63;5030919;28;20260;-81
2023/09/08 03:38:30;;;;;;;7.90;7.00;;;;;;;14.48;91.07;101204.56;5031101;28;20237;-81
2023/09/08 03:40:57;;;;;;;7.30;6.60;;;;;;;14.50;90.98;101205.31;5031064;28;20206;-80
2023/09/08 03:43:24;;;;;;;6.70;6.00;;;;;;;14.42;89.29;101194.28;5031646;28;20734;-80
2023/09/08 03:45:51;;;;;;;8.93;6.70;;;;;;;14.33;89.48;101194.88;5031118;28;20570;-81
2023/09/08 03:48:17;;;;;;;7.70;7.00;;;;;;;14.29;91.08;101198.75;5031030;28;20690;-80
2023/09/08 03:50:45;;;;;;;8.40;6.80;;;;;;;14.29;92.56;101201.44;5031007;28;20206;-80
2023/09/08 03:53:11;;;;;;;8.13;7.33;;;;;;;14.31;93.22;101199.50;5030854;28;20317;-81
2023/09/08 03:55:38;;;;;;;8.23;7.43;;;;;;;14.34;94.21;101204.63;5030861;28;20207;-80
2023/09/08 03:58:05;;;;;;;7.20;6.50;;;;;;;14.34;94.02;101201.94;5030518;28;20233;-80
2023/09/08 04:00:32;;;;;;;8.63;7.83;;;;;;;14.31;93.60;101194.16;5030966;28;20213;-81
2023/09/08 04:02:59;;;;;;;8.73;6.40;;;;;;;14.22;92.81;101205.50;5031798;28;20231;-80
2023/09/08 04:05:25;;;;;;;6.70;6.00;;;;;;;14.15;92.36;101204.22;5035874;28;20583;-80
2023/09/08 04:07:52;;;;;;;6.73;6.13;;;;;;;14.11;92.76;101194.69;5034482;28;20204;-80
2023/09/08 04:10:18;;;;;;;8.03;7.30;;;;;;;14.09;93.45;101196.59;5035827;28;20209;-80
2023/09/08 04:12:45;;;;;;;8.03;7.23;;;;;;;14.11;94.00;101203.59;5035816;28;20226;-79
2023/09/08 04:15:11;;;;;;;8.63;7.83;;;;;;;14.13;94.77;101193.63;5035526;28;20661;-82
2023/09/08 04:17:39;;;;;;;9.00;8.10;;;;;;;14.18;96.26;101196.81;5035699;28;20233;-81
2023/09/08 04:20:07;;;;;;;7.90;7.13;;;;;;;14.21;96.82;101199.28;5035033;28;20232;-83
2023/09/08 04:22:34;;;;;;;7.70;6.93;;;;;;;14.21;97.43;101199.28;5035032;28;20579;-81
2023/09/08 04:25:01;;;;;;;9.43;7.70;;;;;;;14.21;97.46;101196.59;5035171;28;20210;-81
2023/09/08 04:27:28;;;;;;;8.83;7.67;;;;;;;14.22;97.67;101205.50;5036058;28;20210;-82
2023/09/08 04:29:54;;;;;;;9.80;7.83;;;;;;;14.19;97.06;101195.00;5034835;28;20213;-80
2023/09/08 04:32:21;;;;;;;9.60;8.57;;;;;;;14.16;97.27;101196.06;5034895;28;20222;-82
2023/09/08 04:34:49;;;;;;;8.80;7.90;;;;;;;14.13;97.65;101195.44;5035694;28;20234;-80
2023/09/08 04:37:16;;;;;;;8.70;7.77;;;;;;;14.10;97.92;101201.88;5035531;28;20234;-80
2023/09/08 04:39:43;;;;;;;8.13;7.43;;;;;;;14.09;98.40;101199.28;5035818;28;20210;-80
2023/09/08 04:42:10;;;;;;;9.07;8.10;;;;;;;14.08;98.15;101203.78;5034699;28;20226;-80
2023/09/08 04:44:36;;;;;;;9.70;8.17;;;;;;;14.05;98.87;101204.00;5035295;28;20566;-82
2023/09/08 04:47:03;;;;;;;9.47;8.30;;;;;;;14.06;99.25;101196.81;5034849;28;20685;-80
2023/09/08 04:49:30;;;;;;;9.33;8.43;;;;;;;14.08;99.76;101198.44;5035884;28;20206;-80
2023/09/08 04:51:58;;;;;;;8.93;8.03;;;;;;;14.08;100.00;101193.06;5037531;28;20222;-81
2023/09/08 04:54:27;;;;;;;11.10;8.80;;;;;;;14.09;99.94;101199.28;5034745;28;20655;-81
2023/09/08 04:56:53;;;;;;;13.63;8.87;;;;;;;14.07;100.00;101195.84;5045997;28;20663;-81
2023/09/08 04:59:20;;;;;;;11.47;9.37;;;;;;;14.04;100.00;101196.06;5054962;28;20284;-81
2023/09/08 05:01:46;;;;;;;9.90;8.90;;;;;;;14.05;100.00;101195.09;5054652;28;20340;-81
2023/09/08 05:04:13;;;;;;;10.03;8.80;;;;;;;14.06;100.00;101202.19;5053645;28;20722;-80
2023/09/08 05:06:39;;;;;;;8.83;7.97;;;;;;;14.04;100.00;101201.41;5054051;28;20674;-79
2023/09/08 05:09:07;;;;;;;9.73;8.80;;;;;;;14.03;100.00;101207.72;5054131;28;20209;-80
2023/09/08 05:11:34;;;;;;;11.10;8.30;;;;;;;14.00;100.00;101197.22;5054325;28;20668;-80
2023/09/08 05:14:00;;;;;;;16.23;8.20;;;;;;;13.98;100.00;101199.16;5053926;28;20233;-82
2023/09/08 05:16:36;;;;;;;9.13;8.00;;;;;;;13.95;100.00;101199.38;5046741;28;20214;-85
2023/09/08 05:19:03;;;;;;;10.37;9.17;;;;;;;13.95;100.00;101197.56;5044967;28;20210;-83
2023/09/08 05:21:31;;;;;;;9.87;8.97;;;;;;;13.99;100.00;101192.84;5050222;28;20225;-83
2023/09/08 05:23:58;;;;;;;11.10;8.97;;;;;;;14.01;100.00;101194.44;5044427;28;20225;-84
2023/09/08 05:26:26;;;;;;;9.80;8.80;;;;;;;14.07;100.00;101195.84;5042491;28;20205;-83
2023/09/08 05:28:53;;;;;;;10.47;9.00;;;;;;;14.12;100.00;101196.41;5051265;28;20201;-83
2023/09/08 05:31:19;;;;;;;9.40;8.20;;;;;;;14.22;100.00;101200.16;5046198;28;20686;-81
2023/09/08 05:33:46;;;;;;;9.47;8.57;;;;;;;14.29;100.00;101197.91;5045509;28;20201;-82
2023/09/08 05:36:12;;;;;;;9.17;8.30;;;;;;;14.36;100.00;101208.06;5045829;28;20214;-82
2023/09/08 05:38:39;;;;;;;9.93;9.03;;;;;;;14.42;100.00;101199.63;5053773;28;20225;-78
2023/09/08 05:41:05;;;;;;;9.37;8.47;;;;;;;14.47;100.00;101200.19;5053545;28;20206;-80
2023/09/08 05:43:33;;;;;;;11.00;9.17;;;;;;;14.54;100.00;101204.13;5053988;28;20213;-79
2023/09/08 05:45:59;;;;;;;10.13;8.77;;;;;;;14.64;100.00;101206.16;5053741;28;20210;-79
2023/09/08 05:48:26;;;;;;;9.57;8.43;;;;;;;14.71;100.00;101199.38;5053556;28;20205;-80
2023/09/08 05:50:52;;;;;;;8.83;8.03;;;;;;;14.80;100.00;101204.09;5053300;28;20206;-80
2023/09/08 05:53:19;;;;;;;9.40;8.30;;;;;;;14.89;100.00;101198.91;5053695;28;20236;-80
2023/09/08 05:55:45;;;;;;;9.50;8.30;;;;;;;15.00;100.00;101211.56;5053601;28;20206;-79
2023/09/08 05:58:12;;;;;;;9.87;8.63;;;;;;;15.10;100.00;101204.53;5053364;28;20642;-80
2023/09/08 06:00:40;;;;;;;9.40;8.30;;;;;;;15.20;100.00;101202.91;5053767;28;20210;-79
2023/09/08 06:03:06;;;;;;;9.57;8.57;;;;;;;15.31;100.00;101206.59;5053287;28;20733;-79
2023/09/08 06:05:32;;;;;;;9.53;8.53;;;;;;;15.42;100.00;101203.97;5053496;28;20207;-79
2023/09/08 06:07:59;;;;;;;9.90;7.90;;;;;;;15.53;100.00;101212.09;5054245;28;20210;-78
2023/09/08 06:10:25;;;;;;;9.00;8.10;;;;;;;15.64;100.00;101198.72;5053933;28;20591;-80
2023/09/08 06:12:52;;;;;;;8.83;7.67;;;;;;;15.76;100.00;101196.97;5053108;28;20234;-79
2023/09/08 06:15:18;;;;;;;7.97;7.17;;;;;;;15.87;100.00;101188.94;5053230;28;20215;-81
2023/09/08 06:17:47;;;;;;;8.30;7.57;;;;;;;15.99;100.00;101196.03;5052847;28;20277;-78
2023/09/08 06:20:16;;;;;;;7.90;7.07;;;;;;;16.12;100.00;101187.91;5052885;28;20216;-81
2023/09/08 06:22:42;;;;;;;8.40;7.60;;;;;;;16.27;100.00;101186.69;5052843;28;20227;-80
2023/09/08 06:25:09;;;;;;;8.53;7.50;;;;;;;16.41;100.00;101193.66;5052729;28;20220;-79
2023/09/08 06:27:36;;;;;;;7.70;7.00;;;;;;;16.55;100.00;101194.28;5052093;28;20209;-79
2023/09/08 06:30:03;;;;;;;8.40;7.60;;;;;;;16.70;100.00;101194.91;5053142;28;20222;-80
2023/09/08 06:32:29;;;;;;;7.80;7.07;;;;;;;16.81;98.40;101186.84;5052516;28;20241;-79
2023/09/08 06:34:57;;;;;;;8.27;6.87;;;;;;;16.91;97.47;101190.50;5051904;28;20198;-79
2023/09/08 06:37:23;;;;;;;8.17;7.30;;;;;;;17.05;97.12;101189.34;5040810;28;20234;-79
2023/09/08 06:39:50;;;;;;;9.60;7.13;;;;;;;17.19;96.07;101193.63;5047435;28;20203;-77
2023/09/08 06:42:16;;;;;;;9.97;6.73;;;;;;;17.32;95.77;101191.63;5052101;28;20232;-82
2023/09/08 06:44:43;;;;;;;8.00;7.20;;;;;;;17.48;95.16;101196.59;5052560;28;20212;-79
2023/09/08 06:47:09;;;;;;;8.20;7.40;;;;;;;17.63;94.06;101196.16;5052431;28;20210;-81
2023/09/08 06:49:35;;;;;;;7.73;6.93;;;;;;;17.80;93.13;101194.75;5051819;28;20211;-81
2023/09/08 06:52:04;;;;;;;10.37;7.90;;;;;;;17.94;91.38;101194.41;5052834;28;20600;-81
2023/09/08 06:54:30;;;;;;;7.37;6.63;;;;;;;18.09;89.32;101192.28;5052939;28;20218;-80
2023/09/08 06:56:57;;;;;;;8.10;6.83;;;;;;;18.22;88.58;101195.63;5051862;28;20200;-79
2023/09/08 06:59:23;;;;;;;7.13;6.43;;;;;;;18.41;87.72;101194.00;5052047;28;20232;-80
2023/09/08 07:01:49;;;;;;;7.87;6.87;;;;;;;18.57;86.57;101197.91;5037012;28;20600;-80
2023/09/08 07:04:16;;;;;;;7.77;6.67;;;;;;;18.73;86.16;101195.59;5041419;28;20648;-81
2023/09/08 07:06:43;;;;;;;8.07;6.77;;;;;;;18.92;85.82;101191.25;5051096;28;20212;-80
2023/09/08 07:09:11;;;;;;;9.07;6.87;;;;;;;19.08;84.66;101202.38;5051851;28;20207;-80
2023/09/08 07:11:37;;;;;;;7.80;7.00;;;;;;;19.20;83.12;101193.16;5051964;28;20234;-79
2023/09/08 07:14:04;;;;;;;13.13;7.80;;;;;;;19.35;83.08;101197.16;5043798;28;20666;-79
2023/09/08 07:16:30;;;;;;;9.90;7.83;;;;;;;19.52;82.39;101189.41;5050034;28;20208;-81
2023/09/08 07:18:58;;;;;;;9.37;7.23;;;;;;;19.63;80.68;101192.81;5051656;28;20241;-81
2023/09/08 07:21:24;;;;;;;12.23;7.70;;;;;;;19.75;80.30;101190.81;5052326;28;20221;-80
2023/09/08 07:23:51;;;;;;;12.93;7.97;;;;;;;19.86;78.57;101192.53;5043625;28;20218;-79
2023/09/08 07:26:19;;;;;;;12.17;7.67;;;;;;;20.03;78.97;101192.66;5049246;28;20199;-81
2023/09/08 07:28:46;;;;;;;11.90;7.77;;;;;;;20.18;77.74;101194.88;5031196;28;20216;-80
2023/09/08 07:31:12;;;;;;;10.27;7.70;;;;;;;20.34;76.44;101187.00;5046027;28;20223;-81
2023/09/08 07:33:39;;;;;;;10.77;8.70;;;;;;;20.50;75.01;101189.97;5048167;28;20200;-80
2023/09/08 07:36:06;;;;;;;10.73;7.80;;;;;;;20.65;73.58;101195.75;5048852;28;20293;-79
2023/09/08 07:38:32;;;;;;;12.90;8.20;;;;;;;20.78;71.96;101185.47;5042218;28;20257;-80
2023/09/08 07:40:59;;;;;;;13.30;7.45;;;;;;;20.90;71.44;101180.69;5044993;28;20219;-80
2023/09/08 07:43:27;;;;;;;40.60;10.48;;;;;;;21.01;70.68;101183.16;5050454;28;20221;-80
2023/09/08 07:45:54;;;;;;;22.95;7.80;;;;;;;21.14;71.38;101181.78;5047501;28;20213;-81
2023/09/08 07:48:20;;;;;;;10.48;8.00;;;;;;;21.26;70.31;101187.03;5047327;28;20205;-81
2023/09/08 07:50:47;;;;;;;7.65;6.20;;;;;;;21.42;69.09;101182.66;5040078;28;20217;-80
2023/09/08 07:53:13;;;;;;;11.05;5.88;;;;;;;21.60;69.46;101176.38;5043314;28;20316;-79
2023/09/08 07:55:40;;;;;;;9.80;6.53;;;;;;;21.77;69.21;101178.22;5047129;28;20201;-79
2023/09/08 07:58:06;;;;;;;8.77;6.50;;;;;;;21.90;68.10;101170.50;5041950;28;20229;-80
2023/09/08 08:00:34;;;;;;;8.18;5.68;;;;;;;22.03;68.22;101173.72;5042302;28;20204;-79
2023/09/08 08:03:06;;;;;;;8.60;6.53;;;;;;;22.21;67.57;101167.41;5050285;28;20601;-79
2023/09/08 08:05:33;;;;;;;7.90;5.97;;;;;;;22.38;67.21;101163.75;5050272;28;20216;-80
2023/09/08 08:07:59;;;;;;;6.20;5.70;;;;;;;22.57;66.71;101168.97;5050036;28;20204;-80
2023/09/08 08:10:26;;;;;;;7.65;6.45;;;;;;;22.72;65.54;101171.91;5048375;28;20213;-79
2023/09/08 08:12:52;;;;;;;7.80;5.85;;;;;;;22.84;64.82;101171.47;5030570;28;20736;-80
2023/09/08 08:15:21;;;;;;;6.55;5.03;;;;;;;22.96;64.51;101171.16;5047985;28;20604;-79
2023/09/08 08:17:48;;;;;;;6.85;6.15;;;;;;;23.12;64.49;101171.19;5049899;28;20213;-79
2023/09/08 08:20:17;;;;;;;6.60;4.97;;;;;;;23.29;63.65;101167.50;5050073;28;20615;-80
2023/09/08 08:22:44;;;;;;;9.90;5.43;;;;;;;23.48;62.76;101169.91;5049525;28;20229;-80
2023/09/08 08:25:13;;;;;;;8.77;5.57;;;;;;;23.68;62.89;101161.47;5050774;28;20647;-81
2023/09/08 08:27:40;;;;;;;7.28;5.18;;;;;;;23.89;60.67;101169.97;5050622;28;20205;-80
2023/09/08 08:30:07;;;;;;;6.75;5.13;;;;;;;24.05;59.86;101163.66;5051207;28;20212;-81
2023/09/08 08:32:34;;;;;;;8.05;4.85;;;;;;;24.26;58.57;101163.16;5031791;28;20698;-79
2023/09/08 08:35:03;;;;;;;5.75;4.80;;;;;;;24.44;58.29;101161.06;5038004;28;20208;-80
2023/09/08 08:37:29;;;;;;;7.43;5.00;;;;;;;24.65;57.65;101155.88;5050769;28;20251;-82
2023/09/08 08:39:56;;;;;;;4.93;4.43;;;;;;;24.88;56.39;101159.53;5045066;28;20226;-78
2023/09/08 08:42:22;;;;;;;5.03;4.53;;;;;;;25.09;54.04;101160.78;5048087;28;20233;-80
2023/09/08 08:44:50;;;;;;;5.15;4.72;;;;;;;25.26;53.17;101159.66;5046756;28;20206;-80
2023/09/08 08:47:17;;;;;;;5.82;5.22;;;;;;;25.42;52.87;101167.75;5038932;28;20252;-80
2023/09/08 08:49:46;;;;;;;5.60;5.03;;;;;;;25.57;52.88;101162.38;5051197;28;20201;-79
2023/09/08 08:52:17;;;;;;;5.65;5.15;;;;;;;25.75;52.09;101156.63;5047848;28;20229;-80
2023/09/08 08:54:45;;;;;;;5.03;4.63;;;;;;;25.89;51.78;101161.28;5054872;28;20765;-79
2023/09/08 08:57:12;;;;;;;5.93;4.88;;;;;;;26.06;51.46;101149.16;5054122;28;20614;-81
2023/09/08 08:59:41;;;;;;;7.40;4.72;;;;;;;26.23;51.05;101150.69;5045317;28;20217;-78
2023/09/08 09:02:09;;;;;;;5.55;4.63;;;;;;;26.38;50.17;101155.34;5054136;28;20229;-79
2023/09/08 09:04:38;;;;;;;4.90;4.47;;;;;;;26.51;49.30;101145.44;5054061;28;20748;-80
2023/09/08 09:07:04;;;;;;;6.50;4.32;;;;;;;26.63;49.50;101137.63;5053373;28;20205;-80
2023/09/08 09:09:33;;;;;;;4.60;4.15;;;;;;;26.73;48.66;101140.91;5039224;28;20198;-80
2023/09/08 09:11:59;;;;;;;4.85;4.35;;;;;;;26.84;48.09;101147.78;5032895;28;20229;-80
2023/09/08 09:14:26;;;;;;;4.90;4.13;;;;;;;26.95;47.55;101139.13;5051897;28;20209;-79
2023/09/08 09:16:56;;;;;;;8.27;4.18;;;;;;;27.07;47.73;101144.91;5053063;28;20228;-79
2023/09/08 09:19:27;;;;;;;5.07;4.57;;;;;;;27.20;46.72;101145.09;5052737;28;20221;-79
2023/09/08 09:21:55;;;;;;;6.72;4.07;;;;;;;27.36;47.43;101139.38;5052837;28;20306;-78
2023/09/08 09:24:32;;;;;;;4.82;4.38;;;;;;;27.53;47.07;101148.16;5038771;28;20206;-79
2023/09/08 09:26:59;;;;;;;4.88;4.30;;;;;;;27.66;46.97;101151.03;5034426;28;20271;-80
2023/09/08 09:29:26;;;;;;;4.35;3.95;;;;;;;27.78;47.07;101141.25;5055458;28;20205;-80
2023/09/08 09:31:53;;;;;;;4.40;4.00;;;;;;;27.88;45.98;101136.31;5049033;28;20225;-82
2023/09/08 09:34:20;;;;;;;4.60;4.20;;;;;;;27.95;45.74;101136.34;5058398;28;20201;-82
2023/09/08 09:36:49;;;;;;;5.10;4.22;;;;;;;28.00;45.76;101144.81;5053867;28;20752;-78
2023/09/08 09:39:17;;;;;;;4.00;3.60;;;;;;;28.06;45.24;101138.53;5068524;28;20320;-78
2023/09/08 09:41:45;;;;;;;6.20;4.18;;;;;;;28.07;44.81;101136.66;5072453;28;20692;-78
2023/09/08 09:44:12;;;;;;;4.35;3.95;;;;;;;28.08;44.54;101127.38;5042898;28;20214;-82
2023/09/08 09:46:39;;;;;;;4.05;3.67;;;;;;;28.13;44.89;101125.72;5032792;28;20216;-79
2023/09/08 09:49:06;;;;;;;4.32;3.70;;;;;;;28.17;44.80;101121.53;5040347;28;20197;-79
2023/09/08 09:51:33;;;;;;;4.68;3.55;;;;;;;28.19;44.81;101126.81;5053480;28;20225;-79
2023/09/08 09:53:59;;;;;;;5.50;3.90;;;;;;;28.24;44.43;101129.84;5044879;28;20300;-79
2023/09/08 09:56:26;;;;;;;4.93;3.83;;;;;;;28.27;43.42;101127.56;5050471;28;20580;-79
2023/09/08 09:58:55;;;;;;;5.00;3.85;;;;;;;28.33;43.55;101118.50;5045937;28;20229;-79
2023/09/08 10:01:23;;;;;;;4.65;4.25;;;;;;;28.37;42.69;101126.34;5049721;28;20696;-79
2023/09/08 10:03:50;;;;;;;6.28;4.07;;;;;;;28.41;43.24;101117.50;5040299;28;20769;-80
2023/09/08 10:06:20;;;;;;;4.50;3.80;;;;;;;28.46;42.27;101116.91;5052945;28;20571;-78
2023/09/08 10:08:47;;;;;;;4.82;3.60;;;;;;;28.52;42.65;101116.94;5050025;28;20220;-78
2023/09/08 10:11:15;;;;;;;3.95;3.45;;;;;;;28.59;41.92;101106.84;5043288;28;20209;-79
2023/09/08 10:13:47;;;;;;;4.50;3.95;;;;;;;28.66;42.08;101113.19;5050559;28;20232;-80
2023/09/08 10:16:17;;;;;;;3.92;3.53;;;;;;;28.72;42.15;101103.31;5048453;28;20270;-79
2023/09/08 10:18:46;;;;;;;3.35;3.13;;;;;;;28.81;42.63;101104.03;5056941;28;20268;-81
2023/09/08 10:21:14;;;;;;;4.43;3.45;;;;;;;28.92;42.32;101106.16;5045611;28;20611;-79
2023/09/08 10:23:43;;;;;;;4.20;3.88;;;;;;;29.00;41.28;101111.47;5037665;28;20213;-81
2023/09/08 10:26:11;;;;;;;3.83;3.47;;;;;;;29.08;40.86;101110.44;5038286;28;20210;-81
2023/09/08 10:28:38;;;;;;;4.00;3.60;;;;;;;29.14;39.93;101104.13;5052188;28;20206;-82
2023/09/08 10:31:06;;;;;;;5.03;3.35;;;;;;;29.20;39.90;101100.56;5037831;28;20702;-82
2023/09/08 10:33:36;;;;;;;4.00;3.70;;;;;;;29.28;40.77;101103.09;5054002;28;20240;-81
2023/09/08 10:36:05;;;;;;;3.58;3.28;;;;;;;29.41;40.69;101102.28;5042868;28;20571;-82
2023/09/08 10:38:33;;;;;;;6.88;3.60;;;;;;;29.49;39.06;101104.84;5055021;28;20579;-82
2023/09/08 10:41:27;;;;;;;3.70;3.40;;;;;;;29.55;38.31;101096.63;5056340;28;20251;-82
2023/09/08 10:43:56;;;;;;;4.40;3.35;;;;;;;29.63;38.09;101101.88;5050185;28;20204;-80
2023/09/08 10:46:24;;;;;;;4.40;3.63;;;;;;;29.72;38.11;101098.94;5045043;28;20654;-81
2023/09/08 10:48:54;;;;;;;3.78;3.38;;;;;;;29.76;37.95;101100.19;5045478;28;20705;-80
2023/09/08 10:51:22;;;;;;;3.78;3.42;;;;;;;29.77;38.36;101101.88;5054383;28;20210;-80
2023/09/08 10:53:49;;;;;;;5.35;3.60;;;;;;;29.82;38.54;101093.84;5062219;28;20201;-82
2023/09/08 10:56:16;;;;;;;5.60;3.67;;;;;;;29.85;38.66;101098.94;5056404;28;20605;-81
2023/09/08 10:58:43;;;;;;;7.78;3.80;;;;;;;29.87;38.06;101092.16;5055397;28;20212;-81
2023/09/08 11:01:16;;;;;;;4.10;3.22;;;;;;;29.95;38.30;101088.34;5049171;28;20210;-82
2023/09/08 11:03:49;;;;;;;3.95;3.30;;;;;;;30.00;37.66;101086.69;5053319;28;20209;-82
2023/09/08 11:06:18;;;;;;;3.63;3.10;;;;;;;30.02;36.33;101084.56;5055336;28;20288;-81
2023/09/08 11:08:46;;;;;;;3.55;3.25;;;;;;;30.04;36.92;101087.94;5055413;28;20201;-81
2023/09/08 11:11:14;;;;;;;3.47;3.22;;;;;;;30.08;37.40;101082.88;5052086;28;20580;-81
2023/09/08 11:13:41;;;;;;;3.08;2.83;;;;;;;30.10;36.55;101088.97;5056475;28;20560;-81
2023/09/08 11:16:07;;;;;;;3.78;2.83;;;;;;;30.11;36.54;101087.06;5046435;28;20621;-83
2023/09/08 11:18:35;;;;;;;3.50;3.10;;;;;;;30.16;36.98;101088.13;5052840;28;20212;-80
2023/09/08 11:21:03;;;;;;;4.32;2.80;;;;;;;30.21;36.85;101080.09;5050042;28;20750;-80
2023/09/08 11:23:31;;;;;;;3.80;3.38;;;;;;;30.24;36.25;101082.41;5052676;28;20594;-79
2023/09/08 11:25:58;;;;;;;4.50;3.30;;;;;;;30.28;35.71;101078.16;5052400;28;20236;-81